Time;durP1;ratioP1;P1;durP2;ratioP2;P2;SDS_P1;SDS_P2;PMS_P1;PMS_P2;Temp;Humidity;BMP_temperature;BMP_pressure;BME280_temperature;BME280_humidity;BME280_pressure;Samples;Min_cycle;Max_cycle;Signal;HPM_P1;HPM_P2
2022/03/26 00:01:02;;;;;;;21.43;15.50;;;;;;;;;;4946858;28;20825;-49
2022/03/26 00:03:29;;;;;;;27.57;15.90;;;;;;;;;;4942924;28;20441;-50
2022/03/26 00:05:55;;;;;;;30.00;16.20;;;;;;;;;;4943552;28;21014;-50
2022/03/26 00:08:21;;;;;;;29.37;16.83;;;;;;;;;;4940246;28;20450;-50
2022/03/26 00:10:48;;;;;;;30.20;17.80;;;;;;;;;;4947331;28;20505;-51
2022/03/26 00:13:17;;;;;;;31.60;17.50;;;;;;;;;;4951638;28;20502;-50
2022/03/26 00:15:43;;;;;;;25.63;15.53;;;;;;;;;;4950178;28;20550;-51
2022/03/26 00:18:09;;;;;;;27.30;16.50;;;;;;;;;;4949383;28;20550;-50
2022/03/26 00:20:35;;;;;;;30.53;17.43;;;;;;;;;;4947456;28;20458;-51
2022/03/26 00:23:01;;;;;;;24.17;15.20;;;;;;;;;;4943918;28;20450;-50
2022/03/26 00:25:27;;;;;;;23.20;15.77;;;;;;;;;;4950714;28;20967;-50
2022/03/26 00:27:53;;;;;;;23.43;16.20;;;;;;;;;;4954039;28;20935;-50
2022/03/26 00:30:20;;;;;;;27.83;16.40;;;;;;;;;;4947407;28;20483;-50
2022/03/26 00:32:46;;;;;;;23.87;15.37;;;;;;;;;;4939466;28;20483;-50
2022/03/26 00:35:12;;;;;;;24.47;14.77;;;;;;;;;;4949735;28;20508;-50
2022/03/26 00:37:40;;;;;;;28.93;16.13;;;;;;;;;;4946824;28;20896;-50
2022/03/26 00:40:06;;;;;;;25.40;16.20;;;;;;;;;;4947080;28;20973;-50
2022/03/26 00:42:32;;;;;;;29.70;14.87;;;;;;;;;;4946709;28;20507;-50
2022/03/26 00:44:58;;;;;;;31.00;17.70;;;;;;;;;;4942595;28;20956;-50
2022/03/26 00:47:25;;;;;;;26.97;16.73;;;;;;;;;;4947018;28;20441;-51
2022/03/26 00:49:51;;;;;;;26.37;17.13;;;;;;;;;;4947667;28;20426;-50
2022/03/26 00:52:18;;;;;;;23.83;14.33;;;;;;;;;;4961989;28;20519;-49
2022/03/26 00:54:44;;;;;;;22.60;14.97;;;;;;;;;;4943947;28;20828;-50
2022/03/26 00:57:11;;;;;;;27.17;16.03;;;;;;;;;;4959183;28;20494;-51
2022/03/26 00:59:37;;;;;;;26.80;16.57;;;;;;;;;;4945701;28;20482;-50
2022/03/26 01:02:03;;;;;;;28.43;16.00;;;;;;;;;;4942279;28;20557;-50
2022/03/26 01:04:29;;;;;;;29.27;17.20;;;;;;;;;;4939648;28;20435;-51
2022/03/26 01:06:55;;;;;;;30.40;15.43;;;;;;;;;;4944075;28;20732;-48
2022/03/26 01:09:21;;;;;;;29.50;16.20;;;;;;;;;;4943785;28;20977;-49
2022/03/26 01:11:47;;;;;;;26.20;16.00;;;;;;;;;;4939945;28;20483;-49
2022/03/26 01:14:14;;;;;;;30.00;17.30;;;;;;;;;;4950765;28;20434;-50
2022/03/26 01:16:40;;;;;;;30.90;14.53;;;;;;;;;;4944855;28;20482;-51
2022/03/26 01:19:06;;;;;;;29.37;16.63;;;;;;;;;;4949606;28;20483;-50
2022/03/26 01:21:32;;;;;;;28.17;16.13;;;;;;;;;;4948432;28;20432;-49
2022/03/26 01:24:00;;;;;;;28.13;16.03;;;;;;;;;;4945213;28;20453;-51
2022/03/26 01:26:27;;;;;;;30.77;16.40;;;;;;;;;;4945840;28;20450;-50
2022/03/26 01:28:53;;;;;;;29.07;15.57;;;;;;;;;;4946131;28;20447;-50
2022/03/26 01:31:22;;;;;;;30.13;16.00;;;;;;;;;;4946171;28;20442;-51
2022/03/26 01:33:50;;;;;;;27.77;17.70;;;;;;;;;;4949413;28;20968;-49
2022/03/26 01:36:17;;;;;;;30.30;18.10;;;;;;;;;;4947746;28;20455;-49
2022/03/26 01:38:47;;;;;;;26.57;15.17;;;;;;;;;;4947741;28;20644;-49
2022/03/26 01:41:14;;;;;;;28.10;15.20;;;;;;;;;;4939418;28;20523;-51
2022/03/26 01:43:41;;;;;;;31.53;17.00;;;;;;;;;;4950242;28;20908;-50
2022/03/26 01:46:07;;;;;;;26.87;14.30;;;;;;;;;;4944848;28;20426;-49
2022/03/26 01:48:33;;;;;;;27.07;15.03;;;;;;;;;;4942002;28;20540;-49
2022/03/26 01:51:14;;;;;;;26.90;18.07;;;;;;;;;;4948983;28;20447;-51
2022/03/26 01:53:41;;;;;;;28.80;17.07;;;;;;;;;;4940341;28;21477;-49
2022/03/26 01:56:10;;;;;;;26.20;14.87;;;;;;;;;;4947093;28;20548;-50
2022/03/26 01:58:36;;;;;;;35.03;17.57;;;;;;;;;;4945168;28;20524;-51
2022/03/26 02:01:03;;;;;;;25.20;17.57;;;;;;;;;;4942550;28;20487;-51
2022/03/26 02:03:29;;;;;;;33.17;16.30;;;;;;;;;;4929756;29;20443;-50
2022/03/26 02:05:55;;;;;;;29.30;16.33;;;;;;;;;;4948152;28;20483;-48
2022/03/26 02:08:21;;;;;;;25.63;14.90;;;;;;;;;;4947063;28;20434;-49
2022/03/26 02:10:47;;;;;;;26.87;15.70;;;;;;;;;;4944294;28;20775;-51
2022/03/26 02:13:14;;;;;;;28.60;14.67;;;;;;;;;;4946304;28;20554;-49
2022/03/26 02:15:40;;;;;;;24.57;16.57;;;;;;;;;;4949168;28;20506;-49
2022/03/26 02:18:09;;;;;;;26.70;15.87;;;;;;;;;;4946537;28;20573;-49
2022/03/26 02:20:35;;;;;;;28.60;16.20;;;;;;;;;;4946032;28;20444;-50
2022/03/26 02:23:04;;;;;;;27.90;15.90;;;;;;;;;;4927140;28;20474;-50
2022/03/26 02:25:31;;;;;;;27.50;16.13;;;;;;;;;;4943891;28;20921;-47
2022/03/26 02:27:57;;;;;;;26.97;16.23;;;;;;;;;;4942073;28;20583;-46
2022/03/26 02:30:23;;;;;;;29.10;16.20;;;;;;;;;;4944103;28;20472;-49
2022/03/26 02:32:49;;;;;;;32.83;16.90;;;;;;;;;;4941873;28;21177;-50
2022/03/26 02:35:15;;;;;;;30.10;16.23;;;;;;;;;;4927895;29;21292;-50
2022/03/26 02:37:41;;;;;;;28.00;17.00;;;;;;;;;;4948523;28;20465;-49
2022/03/26 02:40:08;;;;;;;28.70;16.23;;;;;;;;;;4942279;28;20439;-50
2022/03/26 02:42:37;;;;;;;29.00;16.07;;;;;;;;;;4945907;28;20592;-50
2022/03/26 02:45:04;;;;;;;28.40;14.90;;;;;;;;;;4946656;28;20450;-50
2022/03/26 02:47:30;;;;;;;26.30;14.80;;;;;;;;;;4949711;28;20438;-48
2022/03/26 02:49:56;;;;;;;26.20;16.80;;;;;;;;;;4948854;28;20486;-50
2022/03/26 02:52:26;;;;;;;29.90;16.20;;;;;;;;;;4945831;28;20510;-50
2022/03/26 02:54:52;;;;;;;26.23;14.83;;;;;;;;;;4953818;28;20451;-50
2022/03/26 02:57:18;;;;;;;30.00;16.77;;;;;;;;;;4946231;28;20436;-50
2022/03/26 02:59:46;;;;;;;28.40;15.60;;;;;;;;;;4943298;28;20487;-50
2022/03/26 03:02:13;;;;;;;25.23;15.40;;;;;;;;;;4944405;28;20438;-50
2022/03/26 03:04:39;;;;;;;25.17;14.97;;;;;;;;;;4942769;28;20516;-50
2022/03/26 03:07:05;;;;;;;23.60;14.43;;;;;;;;;;4946984;28;21221;-52
2022/03/26 03:09:31;;;;;;;27.00;15.07;;;;;;;;;;4946103;28;20436;-50
2022/03/26 03:11:58;;;;;;;23.70;15.40;;;;;;;;;;4944744;28;21438;-48
2022/03/26 03:14:25;;;;;;;25.10;15.07;;;;;;;;;;4943892;28;20458;-49
2022/03/26 03:16:51;;;;;;;30.00;14.97;;;;;;;;;;4961926;28;20430;-50
2022/03/26 03:19:17;;;;;;;26.37;15.60;;;;;;;;;;4944017;28;20478;-51
2022/03/26 03:21:44;;;;;;;25.37;15.00;;;;;;;;;;4932288;29;20447;-49
2022/03/26 03:24:12;;;;;;;28.43;15.70;;;;;;;;;;4943072;28;20469;-50
2022/03/26 03:26:38;;;;;;;26.17;15.87;;;;;;;;;;4947527;28;20922;-51
2022/03/26 03:29:05;;;;;;;25.17;15.37;;;;;;;;;;4956240;28;20451;-51
2022/03/26 03:31:33;;;;;;;31.97;16.57;;;;;;;;;;4943260;28;20459;-50
2022/03/26 03:34:00;;;;;;;27.37;14.63;;;;;;;;;;4943312;28;20535;-51
2022/03/26 03:36:26;;;;;;;25.93;14.60;;;;;;;;;;4942743;28;20448;-50
2022/03/26 03:38:57;;;;;;;35.00;16.40;;;;;;;;;;4944277;28;20840;-50
2022/03/26 03:41:23;;;;;;;27.40;15.13;;;;;;;;;;4945349;28;20442;-49
2022/03/26 03:43:49;;;;;;;31.60;15.67;;;;;;;;;;4944782;28;20942;-47
2022/03/26 03:46:15;;;;;;;30.40;16.37;;;;;;;;;;4942331;28;20450;-48
2022/03/26 03:48:55;;;;;;;24.67;14.33;;;;;;;;;;4943607;28;20435;-50
2022/03/26 03:51:34;;;;;;;30.10;14.97;;;;;;;;;;4949309;28;20311;-49
2022/03/26 03:54:08;;;;;;;24.73;14.60;;;;;;;;;;4936999;29;20443;-50
2022/03/26 03:56:34;;;;;;;28.63;16.33;;;;;;;;;;4928800;28;20451;-50
2022/03/26 03:59:00;;;;;;;32.03;16.83;;;;;;;;;;4957316;28;20486;-50
2022/03/26 04:01:27;;;;;;;24.27;13.67;;;;;;;;;;4940218;28;20525;-51
2022/03/26 04:03:54;;;;;;;28.73;15.63;;;;;;;;;;4940596;28;20467;-54
2022/03/26 04:06:20;;;;;;;24.33;16.33;;;;;;;;;;4943848;28;20462;-49
2022/03/26 04:08:46;;;;;;;28.57;15.73;;;;;;;;;;4944798;28;20459;-49
2022/03/26 04:13:53;;;;;;;32.20;15.87;;;;;;;;;;4948853;28;20419;-48
2022/03/26 04:16:20;;;;;;;25.53;16.90;;;;;;;;;;4945297;28;20431;-50
2022/03/26 04:18:46;;;;;;;29.97;14.40;;;;;;;;;;4944635;28;20995;-49
2022/03/26 04:21:12;;;;;;;29.20;15.40;;;;;;;;;;4941111;28;20431;-51
2022/03/26 04:23:38;;;;;;;26.03;14.97;;;;;;;;;;4946861;28;20455;-51
2022/03/26 04:26:04;;;;;;;25.70;13.00;;;;;;;;;;4945388;28;20801;-50
2022/03/26 04:28:30;;;;;;;34.30;16.23;;;;;;;;;;4943217;28;20522;-49
2022/03/26 04:30:56;;;;;;;22.77;12.67;;;;;;;;;;4947252;28;20434;-51
2022/03/26 04:33:22;;;;;;;26.73;15.93;;;;;;;;;;4944016;28;20428;-50
2022/03/26 04:35:48;;;;;;;25.23;14.80;;;;;;;;;;4944006;28;20462;-52
2022/03/26 04:38:15;;;;;;;27.00;14.60;;;;;;;;;;4949101;28;20565;-50
2022/03/26 04:40:41;;;;;;;27.47;15.83;;;;;;;;;;4942151;28;20812;-51
2022/03/26 04:43:07;;;;;;;23.50;14.70;;;;;;;;;;4937649;28;21699;-51
2022/03/26 04:45:33;;;;;;;26.17;15.13;;;;;;;;;;4943700;28;20816;-50
2022/03/26 04:48:00;;;;;;;35.30;16.97;;;;;;;;;;4941942;28;20442;-49
2022/03/26 04:50:26;;;;;;;22.93;14.50;;;;;;;;;;4942873;28;20439;-57
2022/03/26 04:52:52;;;;;;;28.57;15.80;;;;;;;;;;4947443;28;20462;-50
2022/03/26 04:55:18;;;;;;;21.83;13.33;;;;;;;;;;4961770;28;20445;-50
2022/03/26 04:57:45;;;;;;;27.27;15.40;;;;;;;;;;4943067;28;20526;-49
2022/03/26 05:00:12;;;;;;;29.13;14.10;;;;;;;;;;4946153;28;20859;-50
2022/03/26 05:02:39;;;;;;;27.00;15.07;;;;;;;;;;4950481;28;20446;-51
2022/03/26 05:05:09;;;;;;;28.90;14.30;;;;;;;;;;4955545;28;20742;-50
2022/03/26 05:07:45;;;;;;;25.97;14.00;;;;;;;;;;4947512;28;20439;-53
2022/03/26 05:10:14;;;;;;;21.97;14.63;;;;;;;;;;4965644;28;20430;-51
2022/03/26 05:12:40;;;;;;;23.30;14.47;;;;;;;;;;4950168;28;20442;-51
2022/03/26 05:15:06;;;;;;;25.80;14.53;;;;;;;;;;4950463;28;20467;-51
2022/03/26 05:17:33;;;;;;;26.70;12.87;;;;;;;;;;4946775;28;20439;-50
2022/03/26 05:19:58;;;;;;;23.57;14.47;;;;;;;;;;4945229;28;20980;-50
2022/03/26 05:22:28;;;;;;;22.40;14.83;;;;;;;;;;4945734;28;20452;-51
2022/03/26 05:24:56;;;;;;;27.67;14.00;;;;;;;;;;4947576;28;20479;-51
2022/03/26 05:27:22;;;;;;;25.60;16.03;;;;;;;;;;4946762;28;20447;-50
2022/03/26 05:29:49;;;;;;;24.17;14.50;;;;;;;;;;4948843;28;20436;-51
2022/03/26 05:32:16;;;;;;;26.90;14.37;;;;;;;;;;4944494;28;20435;-50
2022/03/26 05:34:44;;;;;;;29.87;14.37;;;;;;;;;;4941581;28;20462;-53
2022/03/26 05:37:11;;;;;;;23.50;13.73;;;;;;;;;;4939642;28;20682;-50
2022/03/26 05:39:37;;;;;;;23.43;12.77;;;;;;;;;;4944465;28;20475;-51
2022/03/26 05:42:03;;;;;;;26.70;13.67;;;;;;;;;;4948194;28;20551;-51
2022/03/26 05:44:29;;;;;;;24.03;13.50;;;;;;;;;;4947841;28;20447;-50
2022/03/26 05:46:55;;;;;;;25.23;14.60;;;;;;;;;;4945190;28;20442;-50
2022/03/26 05:49:21;;;;;;;24.70;13.83;;;;;;;;;;4943322;28;20544;-51
2022/03/26 05:51:48;;;;;;;24.03;13.93;;;;;;;;;;4945062;28;20962;-51
2022/03/26 05:54:14;;;;;;;24.13;14.43;;;;;;;;;;4947908;28;20455;-51
2022/03/26 05:56:51;;;;;;;26.77;14.77;;;;;;;;;;4943428;28;20507;-51
2022/03/26 05:59:17;;;;;;;29.50;16.97;;;;;;;;;;4950166;28;20480;-52
2022/03/26 06:01:43;;;;;;;37.63;15.63;;;;;;;;;;4940411;28;20530;-51
2022/03/26 06:04:09;;;;;;;28.10;14.30;;;;;;;;;;4944448;28;20510;-49
2022/03/26 06:06:35;;;;;;;27.47;14.43;;;;;;;;;;4942672;28;20435;-49
2022/03/26 06:09:01;;;;;;;28.03;14.90;;;;;;;;;;4944910;28;20777;-49
2022/03/26 06:11:28;;;;;;;19.70;12.50;;;;;;;;;;4948726;28;20530;-55
2022/03/26 06:13:54;;;;;;;23.53;13.50;;;;;;;;;;4944322;28;20459;-50
2022/03/26 06:16:21;;;;;;;23.80;14.03;;;;;;;;;;4949640;28;20505;-49
2022/03/26 06:18:47;;;;;;;24.77;14.77;;;;;;;;;;4945561;28;20483;-50
2022/03/26 06:21:13;;;;;;;23.00;13.60;;;;;;;;;;4945336;28;20447;-49
2022/03/26 06:23:41;;;;;;;24.23;14.87;;;;;;;;;;4947086;28;20462;-50
2022/03/26 06:26:08;;;;;;;26.30;14.77;;;;;;;;;;4939784;28;20495;-51
2022/03/26 06:28:35;;;;;;;26.67;14.57;;;;;;;;;;4933689;28;20435;-50
2022/03/26 06:31:02;;;;;;;37.73;16.20;;;;;;;;;;4969197;28;20443;-51
2022/03/26 06:33:34;;;;;;;30.70;17.77;;;;;;;;;;4941518;28;20447;-51
2022/03/26 06:36:02;;;;;;;28.23;15.87;;;;;;;;;;4960177;28;20465;-51
2022/03/26 06:38:32;;;;;;;28.20;14.40;;;;;;;;;;4946456;28;20505;-50
2022/03/26 06:40:59;;;;;;;31.60;15.57;;;;;;;;;;4957041;28;20437;-51
2022/03/26 06:43:25;;;;;;;26.27;15.57;;;;;;;;;;4977187;28;20526;-49
2022/03/26 06:45:52;;;;;;;27.50;14.40;;;;;;;;;;4950009;28;20467;-50
2022/03/26 06:48:19;;;;;;;27.90;16.70;;;;;;;;;;4947043;28;20714;-53
2022/03/26 06:50:45;;;;;;;31.30;15.57;;;;;;;;;;4948333;28;20439;-50
2022/03/26 06:53:11;;;;;;;26.40;14.90;;;;;;;;;;4948261;28;20434;-50
2022/03/26 06:55:37;;;;;;;30.30;15.83;;;;;;;;;;4944309;28;20518;-50
2022/03/26 06:58:03;;;;;;;28.93;14.80;;;;;;;;;;4944571;28;20471;-50
2022/03/26 07:00:29;;;;;;;30.27;16.53;;;;;;;;;;4947286;28;20442;-49
2022/03/26 07:02:55;;;;;;;30.53;13.00;;;;;;;;;;4926444;28;20503;-50
2022/03/26 07:05:22;;;;;;;36.17;15.60;;;;;;;;;;4940611;28;20431;-50
2022/03/26 07:07:48;;;;;;;26.23;14.33;;;;;;;;;;4947160;28;20423;-50
2022/03/26 07:10:14;;;;;;;27.77;14.30;;;;;;;;;;4944565;28;20431;-50
2022/03/26 07:12:41;;;;;;;28.03;15.17;;;;;;;;;;4948860;28;20490;-50
2022/03/26 07:15:07;;;;;;;26.87;16.33;;;;;;;;;;4940629;28;20435;-50
2022/03/26 07:17:33;;;;;;;29.40;16.50;;;;;;;;;;4941710;28;20949;-50
2022/03/26 07:20:00;;;;;;;27.20;15.50;;;;;;;;;;4936380;28;20494;-50
2022/03/26 07:22:26;;;;;;;25.90;14.87;;;;;;;;;;4944636;28;21017;-51
2022/03/26 07:24:52;;;;;;;25.70;14.47;;;;;;;;;;4939884;28;20515;-57
2022/03/26 07:27:19;;;;;;;26.53;15.20;;;;;;;;;;4938469;28;20439;-50
2022/03/26 07:29:51;;;;;;;33.47;17.53;;;;;;;;;;4943878;28;20470;-54
2022/03/26 07:32:18;;;;;;;35.13;16.40;;;;;;;;;;4948867;28;20939;-51
2022/03/26 07:34:44;;;;;;;25.70;14.93;;;;;;;;;;4933094;28;20458;-51
2022/03/26 07:37:10;;;;;;;28.07;17.30;;;;;;;;;;4936551;28;20454;-50
2022/03/26 07:39:36;;;;;;;24.43;14.60;;;;;;;;;;4940843;28;20536;-51
2022/03/26 07:42:02;;;;;;;30.37;15.97;;;;;;;;;;4941583;28;20524;-51
2022/03/26 07:44:35;;;;;;;27.47;17.33;;;;;;;;;;4938103;28;20573;-50
2022/03/26 07:47:02;;;;;;;28.40;16.37;;;;;;;;;;4942118;28;21396;-49
2022/03/26 07:49:29;;;;;;;24.30;14.80;;;;;;;;;;4945220;28;20435;-50
2022/03/26 07:52:07;;;;;;;25.87;15.10;;;;;;;;;;4935893;28;20450;-51
2022/03/26 07:54:34;;;;;;;26.30;14.87;;;;;;;;;;4926459;28;20465;-50
2022/03/26 07:57:03;;;;;;;26.50;16.53;;;;;;;;;;4928576;28;20984;-50
2022/03/26 07:59:42;;;;;;;25.73;14.90;;;;;;;;;;4924652;28;20487;-50
2022/03/26 08:02:09;;;;;;;30.23;17.57;;;;;;;;;;4934848;28;20443;-50
2022/03/26 08:04:35;;;;;;;26.40;14.90;;;;;;;;;;4956426;28;20501;-50
2022/03/26 08:07:01;;;;;;;23.37;14.97;;;;;;;;;;4940152;28;20960;-50
2022/03/26 08:09:27;;;;;;;24.27;14.67;;;;;;;;;;4939770;28;20439;-50
2022/03/26 08:11:53;;;;;;;27.20;14.50;;;;;;;;;;4927214;28;20455;-48
2022/03/26 08:14:19;;;;;;;27.20;15.60;;;;;;;;;;4941064;28;21132;-46
2022/03/26 08:16:48;;;;;;;26.73;15.87;;;;;;;;;;4937315;28;21249;-48
2022/03/26 08:19:14;;;;;;;25.47;14.63;;;;;;;;;;4934142;28;20906;-47
2022/03/26 08:21:40;;;;;;;29.10;15.90;;;;;;;;;;4946278;28;20793;-49
2022/03/26 08:24:06;;;;;;;35.37;16.73;;;;;;;;;;4973351;28;20470;-49
2022/03/26 08:26:32;;;;;;;26.57;14.97;;;;;;;;;;4948418;28;20447;-48
2022/03/26 08:28:59;;;;;;;32.73;18.80;;;;;;;;;;4945034;28;20805;-49
2022/03/26 08:31:26;;;;;;;30.50;17.87;;;;;;;;;;4945112;28;20482;-49
2022/03/26 08:34:00;;;;;;;26.80;16.00;;;;;;;;;;4950680;28;20518;-50
2022/03/26 08:36:26;;;;;;;29.60;17.23;;;;;;;;;;4950196;28;21017;-50
2022/03/26 08:38:53;;;;;;;27.53;16.23;;;;;;;;;;4937046;28;20474;-48
2022/03/26 08:41:19;;;;;;;28.07;15.80;;;;;;;;;;4936941;28;20779;-48
2022/03/26 08:43:46;;;;;;;30.00;15.20;;;;;;;;;;4937394;28;21188;-49
2022/03/26 08:46:12;;;;;;;35.27;17.57;;;;;;;;;;4938547;28;20439;-50
2022/03/26 08:48:39;;;;;;;35.47;17.30;;;;;;;;;;4940425;28;21113;-50
2022/03/26 08:51:05;;;;;;;28.90;15.83;;;;;;;;;;4936463;28;20451;-49
2022/03/26 08:53:31;;;;;;;27.20;16.67;;;;;;;;;;4931867;28;20464;-49
2022/03/26 08:55:57;;;;;;;25.43;16.20;;;;;;;;;;4935964;28;20558;-49
2022/03/26 08:58:23;;;;;;;28.57;15.87;;;;;;;;;;4935798;28;21090;-51
2022/03/26 09:00:51;;;;;;;28.20;16.50;;;;;;;;;;4937548;28;20964;-50
2022/03/26 09:03:20;;;;;;;31.77;16.57;;;;;;;;;;4933262;28;20455;-51
2022/03/26 09:05:46;;;;;;;33.17;17.20;;;;;;;;;;4932623;28;21030;-49
2022/03/26 09:08:12;;;;;;;28.70;16.80;;;;;;;;;;4934707;28;20430;-51
2022/03/26 09:10:38;;;;;;;29.73;16.40;;;;;;;;;;4933722;28;20450;-49
2022/03/26 09:13:04;;;;;;;27.67;17.50;;;;;;;;;;4935575;28;20439;-50
2022/03/26 09:15:30;;;;;;;33.60;17.50;;;;;;;;;;4934161;28;20443;-50
2022/03/26 09:17:57;;;;;;;36.53;17.27;;;;;;;;;;4933806;28;20431;-48
2022/03/26 09:20:27;;;;;;;29.70;17.00;;;;;;;;;;4932909;28;20525;-51
2022/03/26 09:22:56;;;;;;;33.00;18.30;;;;;;;;;;4936512;28;20451;-50
2022/03/26 09:25:22;;;;;;;32.53;17.17;;;;;;;;;;4942680;28;20502;-51
2022/03/26 09:27:49;;;;;;;31.77;17.57;;;;;;;;;;4936328;28;20450;-51
2022/03/26 09:30:15;;;;;;;30.43;17.17;;;;;;;;;;4938882;28;20864;-51
2022/03/26 09:32:45;;;;;;;27.13;16.87;;;;;;;;;;4932222;28;21032;-51
2022/03/26 09:35:12;;;;;;;28.53;17.00;;;;;;;;;;4934851;28;20442;-51
2022/03/26 09:37:38;;;;;;;30.77;18.83;;;;;;;;;;4935520;28;20498;-52
2022/03/26 09:40:05;;;;;;;30.80;18.90;;;;;;;;;;4937092;28;20486;-51
2022/03/26 09:42:34;;;;;;;28.17;17.63;;;;;;;;;;4932871;28;20466;-51
2022/03/26 09:45:01;;;;;;;29.93;18.77;;;;;;;;;;4932421;28;20443;-49
2022/03/26 09:47:30;;;;;;;29.40;18.17;;;;;;;;;;4939283;28;20439;-52
2022/03/26 09:50:02;;;;;;;38.63;17.33;;;;;;;;;;4929427;28;20463;-52
2022/03/26 09:52:28;;;;;;;35.80;19.90;;;;;;;;;;4937155;28;20698;-51
2022/03/26 09:54:57;;;;;;;32.63;19.67;;;;;;;;;;4934480;28;20979;-50
2022/03/26 09:57:23;;;;;;;28.40;17.60;;;;;;;;;;4936563;28;20444;-49
2022/03/26 09:59:49;;;;;;;38.57;18.90;;;;;;;;;;4940547;28;20482;-49
2022/03/26 10:02:16;;;;;;;27.83;16.97;;;;;;;;;;4939770;28;20435;-50
2022/03/26 10:04:43;;;;;;;32.27;19.10;;;;;;;;;;4946389;28;20529;-50
2022/03/26 10:07:09;;;;;;;35.97;20.60;;;;;;;;;;4944706;28;20442;-51
2022/03/26 10:09:41;;;;;;;29.97;19.90;;;;;;;;;;4936245;28;20424;-51
2022/03/26 10:12:10;;;;;;;30.87;17.60;;;;;;;;;;4929908;28;21046;-52
2022/03/26 10:14:44;;;;;;;29.67;17.40;;;;;;;;;;4938411;28;20439;-50
2022/03/26 10:17:30;;;;;;;28.43;17.43;;;;;;;;;;4929936;28;20436;-51
2022/03/26 10:19:56;;;;;;;32.57;20.67;;;;;;;;;;4929069;28;20515;-50
2022/03/26 10:22:23;;;;;;;29.23;17.67;;;;;;;;;;4936024;28;20439;-51
2022/03/26 10:25:00;;;;;;;31.30;19.23;;;;;;;;;;4928551;28;20448;-51
2022/03/26 10:27:26;;;;;;;39.47;19.93;;;;;;;;;;4932749;28;20530;-52
2022/03/26 10:29:53;;;;;;;27.67;19.23;;;;;;;;;;4944345;28;20555;-51
2022/03/26 10:35:17;;;;;;;32.63;20.60;;;;;;;;;;4940093;28;20595;-52
2022/03/26 10:37:47;;;;;;;35.47;20.07;;;;;;;;;;4933228;28;20432;-51
2022/03/26 10:40:17;;;;;;;36.07;20.30;;;;;;;;;;4936918;28;20812;-51
2022/03/26 10:42:43;;;;;;;25.10;17.77;;;;;;;;;;4929754;28;20439;-50
2022/03/26 10:45:17;;;;;;;25.97;16.43;;;;;;;;;;4939144;28;20455;-52
2022/03/26 10:47:43;;;;;;;32.07;18.23;;;;;;;;;;4937253;28;20427;-51
2022/03/26 10:50:12;;;;;;;42.87;19.03;;;;;;;;;;4939790;28;20435;-52
2022/03/26 10:52:40;;;;;;;34.07;19.30;;;;;;;;;;4962017;28;20564;-51
2022/03/26 10:55:17;;;;;;;32.20;17.20;;;;;;;;;;4930761;28;20439;-51
2022/03/26 10:57:46;;;;;;;29.10;19.80;;;;;;;;;;4934493;28;21031;-52
2022/03/26 11:00:17;;;;;;;32.53;18.70;;;;;;;;;;4937542;28;20460;-52
2022/03/26 11:02:43;;;;;;;36.53;19.57;;;;;;;;;;4948052;28;20450;-51
2022/03/26 11:05:09;;;;;;;38.03;21.43;;;;;;;;;;4932295;28;20452;-52
2022/03/26 11:07:37;;;;;;;29.97;18.13;;;;;;;;;;4929464;28;21159;-52
2022/03/26 11:10:04;;;;;;;37.30;19.00;;;;;;;;;;4922299;28;20608;-51
2022/03/26 11:12:31;;;;;;;33.03;20.63;;;;;;;;;;4929577;28;20486;-50
2022/03/26 11:15:00;;;;;;;35.30;19.80;;;;;;;;;;4934109;28;21003;-51
2022/03/26 11:17:45;;;;;;;37.87;20.33;;;;;;;;;;4934753;28;20463;-53
2022/03/26 11:20:15;;;;;;;31.03;18.77;;;;;;;;;;4939089;28;20525;-51
2022/03/26 11:22:59;;;;;;;30.00;17.40;;;;;;;;;;4940959;28;20435;-50
2022/03/26 11:25:44;;;;;;;28.10;18.00;;;;;;;;;;4928793;28;20434;-49
2022/03/26 11:28:15;;;;;;;32.87;18.57;;;;;;;;;;4932295;28;20455;-50
2022/03/26 11:30:45;;;;;;;32.07;19.27;;;;;;;;;;4946570;28;20474;-52
2022/03/26 11:33:13;;;;;;;28.20;18.53;;;;;;;;;;4942941;28;20478;-51
2022/03/26 11:35:54;;;;;;;33.80;21.13;;;;;;;;;;4938552;28;20554;-52
2022/03/26 11:38:20;;;;;;;29.03;21.83;;;;;;;;;;4946698;28;20596;-51
2022/03/26 11:40:50;;;;;;;36.00;21.03;;;;;;;;;;4940174;28;20462;-52
2022/03/26 11:43:18;;;;;;;34.17;20.67;;;;;;;;;;4933730;28;20466;-52
2022/03/26 11:51:41;;;;;;;26.73;18.67;;;;;;;;;;4945432;28;20909;-51
2022/03/26 11:54:13;;;;;;;29.20;18.50;;;;;;;;;;4936415;28;20443;-51
2022/03/26 11:56:42;;;;;;;30.53;18.27;;;;;;;;;;4945317;28;20510;-52
2022/03/26 11:59:25;;;;;;;26.93;21.03;;;;;;;;;;4944079;28;20487;-52
2022/03/26 12:01:52;;;;;;;27.03;19.07;;;;;;;;;;4949311;28;20435;-51
2022/03/26 12:04:21;;;;;;;23.63;18.13;;;;;;;;;;4932328;28;20465;-51
2022/03/26 12:07:06;;;;;;;31.07;17.67;;;;;;;;;;4937252;28;20439;-51
2022/03/26 12:09:39;;;;;;;24.27;15.63;;;;;;;;;;4936796;28;20448;-51
2022/03/26 12:12:06;;;;;;;26.10;17.23;;;;;;;;;;4930309;28;20447;-50
2022/03/26 12:14:35;;;;;;;28.30;15.40;;;;;;;;;;4928020;28;20455;-52
2022/03/26 12:17:03;;;;;;;26.60;16.30;;;;;;;;;;4931623;28;21059;-52
2022/03/26 12:19:39;;;;;;;19.90;14.60;;;;;;;;;;4935754;28;20884;-51
2022/03/26 12:22:20;;;;;;;23.60;15.50;;;;;;;;;;4948973;28;20896;-51
2022/03/26 12:24:46;;;;;;;21.77;15.20;;;;;;;;;;4935609;28;20999;-50
2022/03/26 12:27:13;;;;;;;21.23;15.10;;;;;;;;;;4942644;28;20475;-52
2022/03/26 12:29:39;;;;;;;20.73;15.87;;;;;;;;;;4940945;28;20453;-50
2022/03/26 12:32:06;;;;;;;25.93;16.13;;;;;;;;;;4932082;28;20482;-51
2022/03/26 12:34:32;;;;;;;24.07;15.90;;;;;;;;;;4931960;28;20498;-51
2022/03/26 12:37:02;;;;;;;22.33;15.10;;;;;;;;;;4934002;28;20451;-50
2022/03/26 12:39:29;;;;;;;21.80;16.47;;;;;;;;;;4936354;28;20584;-50
2022/03/26 12:41:56;;;;;;;21.57;16.63;;;;;;;;;;4951104;28;20466;-52
2022/03/26 12:44:27;;;;;;;23.93;18.40;;;;;;;;;;4939343;28;20940;-51
2022/03/26 12:47:13;;;;;;;25.93;16.73;;;;;;;;;;4933639;28;20435;-52
2022/03/26 12:49:41;;;;;;;23.33;16.77;;;;;;;;;;4932625;28;20447;-50
2022/03/26 12:52:07;;;;;;;21.73;15.03;;;;;;;;;;4947585;28;20427;-51
2022/03/26 12:54:45;;;;;;;23.80;17.03;;;;;;;;;;4938112;28;20493;-52
2022/03/26 12:57:20;;;;;;;26.40;16.77;;;;;;;;;;4933883;28;20454;-52
2022/03/26 12:59:56;;;;;;;24.77;16.80;;;;;;;;;;4938637;28;23166;-51
2022/03/26 13:02:23;;;;;;;21.47;15.63;;;;;;;;;;4937876;28;20435;-51
2022/03/26 13:04:53;;;;;;;23.53;15.47;;;;;;;;;;4935726;28;20526;-52
2022/03/26 13:07:19;;;;;;;21.47;14.87;;;;;;;;;;4933754;28;21239;-52
2022/03/26 13:09:56;;;;;;;19.33;14.80;;;;;;;;;;4938157;28;20424;-53
2022/03/26 13:12:25;;;;;;;23.57;14.60;;;;;;;;;;4934447;28;20449;-51
2022/03/26 13:14:53;;;;;;;20.50;15.17;;;;;;;;;;4936967;28;20439;-52
2022/03/26 13:17:21;;;;;;;20.47;15.23;;;;;;;;;;4944209;28;20585;-51
2022/03/26 13:19:47;;;;;;;20.80;16.47;;;;;;;;;;4941613;28;20514;-51
2022/03/26 13:22:17;;;;;;;18.67;14.57;;;;;;;;;;4934862;28;20465;-53
2022/03/26 13:24:53;;;;;;;18.03;13.93;;;;;;;;;;4940474;28;20521;-51
2022/03/26 13:27:27;;;;;;;19.77;13.47;;;;;;;;;;4938328;28;20489;-51
2022/03/26 13:30:07;;;;;;;18.80;14.57;;;;;;;;;;4934305;28;20445;-53
2022/03/26 13:32:33;;;;;;;19.00;14.03;;;;;;;;;;4936263;28;20458;-51
2022/03/26 13:34:59;;;;;;;22.47;14.70;;;;;;;;;;4933941;28;20459;-51
2022/03/26 13:37:39;;;;;;;20.43;14.63;;;;;;;;;;4944455;28;20446;-53
2022/03/26 13:40:09;;;;;;;16.40;12.40;;;;;;;;;;4946525;28;20488;-50
2022/03/26 13:42:38;;;;;;;20.47;13.83;;;;;;;;;;4963907;28;20537;-51
2022/03/26 13:45:05;;;;;;;20.87;13.73;;;;;;;;;;4940467;28;20439;-51
2022/03/26 13:47:32;;;;;;;22.13;16.93;;;;;;;;;;4927551;28;20439;-51
2022/03/26 13:50:06;;;;;;;19.90;12.30;;;;;;;;;;4945868;28;20471;-52
2022/03/26 13:52:33;;;;;;;19.70;12.77;;;;;;;;;;4943120;28;20510;-51
2022/03/26 13:55:26;;;;;;;24.43;14.00;;;;;;;;;;4946591;28;20434;-52
2022/03/26 13:57:55;;;;;;;13.87;10.70;;;;;;;;;;4938277;28;20497;-51
2022/03/26 14:00:22;;;;;;;20.47;11.27;;;;;;;;;;4944516;28;20490;-50
2022/03/26 14:02:50;;;;;;;20.87;12.80;;;;;;;;;;4941561;28;20446;-51
2022/03/26 14:05:19;;;;;;;21.97;11.77;;;;;;;;;;4945767;28;20456;-51
2022/03/26 14:08:02;;;;;;;20.63;12.03;;;;;;;;;;4947423;28;20518;-52
2022/03/26 14:10:40;;;;;;;16.30;12.20;;;;;;;;;;4941459;28;20454;-52
2022/03/26 14:13:07;;;;;;;14.67;11.40;;;;;;;;;;4946109;28;20430;-51
2022/03/26 14:15:34;;;;;;;18.77;10.70;;;;;;;;;;4933376;28;20482;-51
2022/03/26 14:18:03;;;;;;;18.07;12.87;;;;;;;;;;4941297;28;20443;-55
2022/03/26 14:20:32;;;;;;;18.10;11.80;;;;;;;;;;4937499;28;20438;-52
2022/03/26 14:22:59;;;;;;;16.13;11.33;;;;;;;;;;4930284;28;22783;-49
2022/03/26 14:25:28;;;;;;;16.10;10.70;;;;;;;;;;4946459;28;20436;-51
2022/03/26 14:27:55;;;;;;;18.87;12.27;;;;;;;;;;4951364;28;20437;-52
2022/03/26 14:30:21;;;;;;;18.90;11.27;;;;;;;;;;4948332;28;20555;-53
2022/03/26 14:32:47;;;;;;;16.73;11.60;;;;;;;;;;4943260;28;20439;-52